createdAt,value
2022-09-29T00:00:27.052Z,8.05
2022-09-29T00:02:54.295Z,8.55
2022-09-29T00:05:21.774Z,8.13
2022-09-29T00:07:48.502Z,8.18
2022-09-29T00:10:15.474Z,8.80
2022-09-29T00:12:42.167Z,8.95
2022-09-29T00:15:09.317Z,7.90
2022-09-29T00:17:36.186Z,7.45
2022-09-29T00:20:03.484Z,8.07
2022-09-29T00:22:30.213Z,7.47
2022-09-29T00:24:57.137Z,8.02
2022-09-29T00:27:23.923Z,7.82
2022-09-29T00:29:50.568Z,8.07
2022-09-29T00:32:17.456Z,9.02
2022-09-29T00:34:44.720Z,8.38
2022-09-29T00:37:11.388Z,7.82
2022-09-29T00:39:38.302Z,8.35
2022-09-29T00:42:04.957Z,10.85
2022-09-29T00:44:54.888Z,9.27
2022-09-29T00:47:22.842Z,7.97
2022-09-29T00:49:56.689Z,9.07
2022-09-29T00:52:33.247Z,11.95
2022-09-29T00:55:17.989Z,8.82
2022-09-29T00:57:51.989Z,9.80
2022-09-29T01:00:18.771Z,7.57
2022-09-29T01:02:55.877Z,7.60
2022-09-29T01:05:32.682Z,7.87
2022-09-29T01:08:12.062Z,7.78
2022-09-29T01:10:39.832Z,8.00
2022-09-29T01:13:06.851Z,7.82
2022-09-29T01:15:34.455Z,7.70
2022-09-29T01:18:01.233Z,8.57
2022-09-29T01:20:34.977Z,9.13
2022-09-29T01:23:10.940Z,7.00
2022-09-29T01:25:37.822Z,7.90
2022-09-29T01:28:42.529Z,7.93
2022-09-29T01:31:24.487Z,8.55
2022-09-29T01:34:23.668Z,11.32
2022-09-29T01:37:08.891Z,9.40
2022-09-29T01:39:41.394Z,9.75
2022-09-29T01:42:19.193Z,15.35
2022-09-29T01:44:52.353Z,11.70
2022-09-29T01:47:27.829Z,9.30
2022-09-29T01:50:08.782Z,8.07
2022-09-29T01:52:43.205Z,8.70
2022-09-29T01:55:13.298Z,11.55
2022-09-29T01:57:48.249Z,7.82
2022-09-29T02:00:18.939Z,7.53
2022-09-29T02:03:06.007Z,9.68
2022-09-29T02:05:48.381Z,6.72
2022-09-29T02:08:25.282Z,6.57
2022-09-29T02:11:00.887Z,7.15
2022-09-29T02:13:33.897Z,7.28
2022-09-29T02:16:04.216Z,7.32
2022-09-29T02:18:37.698Z,7.95
2022-09-29T02:21:04.625Z,8.15
2022-09-29T02:23:31.720Z,7.60
2022-09-29T02:26:00.091Z,8.57
2022-09-29T02:28:27.196Z,8.13
2022-09-29T02:30:54.448Z,7.87
2022-09-29T02:33:24.066Z,9.68
2022-09-29T02:36:27.152Z,7.57
2022-09-29T02:39:02.054Z,7.53
2022-09-29T02:41:52.397Z,8.43
2022-09-29T02:44:44.787Z,8.88
2022-09-29T02:47:16.562Z,7.75
2022-09-29T02:50:01.988Z,8.65
2022-09-29T02:52:56.407Z,9.30
2022-09-29T02:55:43.615Z,8.25
2022-09-29T02:58:16.336Z,8.60
2022-09-29T03:00:44.515Z,9.63
2022-09-29T03:03:11.397Z,8.35
2022-09-29T03:05:38.170Z,9.43
2022-09-29T03:08:05.605Z,9.27
2022-09-29T03:10:32.206Z,8.85
2022-09-29T03:12:59.459Z,9.35
2022-09-29T03:15:26.404Z,9.50
2022-09-29T03:17:57.247Z,10.38
2022-09-29T03:20:24.287Z,10.05
2022-09-29T03:22:52.141Z,10.77
2022-09-29T03:25:19.052Z,10.43
2022-09-29T03:27:46.364Z,11.00
2022-09-29T03:30:13.605Z,9.85
2022-09-29T03:32:40.268Z,12.05
2022-09-29T03:35:07.515Z,14.93
2022-09-29T03:37:34.414Z,12.48
2022-09-29T03:40:01.439Z,11.90
2022-09-29T03:42:28.546Z,10.65
2022-09-29T03:44:55.524Z,12.63
2022-09-29T03:47:22.293Z,12.00
2022-09-29T03:49:48.924Z,14.60
2022-09-29T03:52:16.436Z,16.90
2022-09-29T03:54:43.088Z,16.48
2022-09-29T03:57:09.671Z,12.95
2022-09-29T03:59:36.565Z,12.57
2022-09-29T04:02:03.370Z,13.73
2022-09-29T04:04:30.423Z,13.35
2022-09-29T04:06:57.088Z,14.60
2022-09-29T04:09:23.667Z,14.70
2022-09-29T04:11:50.524Z,15.43
2022-09-29T04:14:17.192Z,14.40
2022-09-29T04:16:43.849Z,13.27
2022-09-29T04:19:10.788Z,15.15
2022-09-29T04:21:37.414Z,13.98
2022-09-29T04:24:04.221Z,16.37
2022-09-29T04:26:31.201Z,14.55
2022-09-29T04:28:57.932Z,20.27
2022-09-29T04:31:24.672Z,14.77
2022-09-29T04:33:52.174Z,15.07
2022-09-29T04:36:18.816Z,16.45
2022-09-29T04:38:45.651Z,16.62
2022-09-29T04:41:12.634Z,16.98
2022-09-29T04:43:39.301Z,15.82
2022-09-29T04:46:07.827Z,16.87
2022-09-29T04:48:36.448Z,15.68
2022-09-29T04:51:04.558Z,16.55
2022-09-29T04:53:31.258Z,17.48
2022-09-29T04:55:58.168Z,18.02
2022-09-29T04:58:24.828Z,16.02
2022-09-29T05:00:51.610Z,15.07
2022-09-29T05:03:18.642Z,15.13
2022-09-29T05:05:45.313Z,16.48
2022-09-29T05:08:12.013Z,16.62
2022-09-29T05:10:38.994Z,18.70
2022-09-29T05:13:05.646Z,21.35
2022-09-29T05:15:32.271Z,19.50
2022-09-29T05:18:02.765Z,18.17
2022-09-29T05:20:38.357Z,18.62
2022-09-29T05:23:10.281Z,17.55
2022-09-29T05:25:37.965Z,19.80
2022-09-29T05:28:04.603Z,19.12
2022-09-29T05:30:31.589Z,18.90
2022-09-29T05:32:59.107Z,24.75
2022-09-29T05:35:26.134Z,20.25
2022-09-29T05:37:53.228Z,22.02
2022-09-29T05:40:20.013Z,21.10
2022-09-29T05:42:46.654Z,18.90
2022-09-29T05:45:13.567Z,18.95
2022-09-29T05:47:44.444Z,19.35
2022-09-29T05:50:14.608Z,18.75
2022-09-29T05:52:41.522Z,19.02
2022-09-29T05:55:11.448Z,17.73
2022-09-29T05:57:38.158Z,18.98
2022-09-29T06:00:06.315Z,18.00
2022-09-29T06:02:37.984Z,18.12
2022-09-29T06:05:05.497Z,17.52
2022-09-29T06:07:32.123Z,21.25
2022-09-29T06:09:58.701Z,18.20
2022-09-29T06:12:25.845Z,18.02
2022-09-29T06:14:52.428Z,18.02
2022-09-29T06:17:19.138Z,19.08
2022-09-29T06:19:46.105Z,18.80
2022-09-29T06:22:12.696Z,19.10
2022-09-29T06:24:39.311Z,18.52
2022-09-29T06:27:06.234Z,18.15
2022-09-29T06:29:32.807Z,19.60
2022-09-29T06:31:59.436Z,18.48
2022-09-29T06:34:26.469Z,19.33
2022-09-29T06:37:12.343Z,19.02
2022-09-29T06:39:39.465Z,19.92
2022-09-29T06:42:06.131Z,18.67
2022-09-29T06:44:32.935Z,17.15
2022-09-29T06:47:00.323Z,15.95
2022-09-29T06:49:27.088Z,15.27
2022-09-29T06:51:54.245Z,15.52
2022-09-29T06:54:25.130Z,15.55
2022-09-29T06:56:53.908Z,13.20
2022-09-29T06:59:20.994Z,13.88
2022-09-29T07:01:51.437Z,15.15
2022-09-29T07:04:20.272Z,13.40
2022-09-29T07:06:48.046Z,13.23
2022-09-29T07:09:17.682Z,13.77
2022-09-29T07:11:50.462Z,13.77
2022-09-29T07:14:19.077Z,11.27
2022-09-29T07:16:48.360Z,11.80
2022-09-29T07:19:16.794Z,15.02
2022-09-29T07:21:44.822Z,12.13
2022-09-29T07:24:11.618Z,13.43
2022-09-29T07:26:38.351Z,12.90
2022-09-29T07:29:05.565Z,9.65
2022-09-29T07:31:43.619Z,11.52
2022-09-29T07:34:12.291Z,9.88
2022-09-29T07:36:39.135Z,10.20
2022-09-29T07:39:05.796Z,9.85
2022-09-29T07:41:32.945Z,9.90
2022-09-29T07:43:59.677Z,9.25
2022-09-29T07:46:26.907Z,9.48
2022-09-29T07:48:53.921Z,9.05
2022-09-29T07:51:21.282Z,8.73
2022-09-29T07:53:48.337Z,8.75
2022-09-29T07:56:20.432Z,10.18
2022-09-29T08:01:16.008Z,7.82
2022-09-29T08:03:49.030Z,7.32
2022-09-29T08:06:15.845Z,10.90
2022-09-29T08:08:51.333Z,8.02
2022-09-29T08:11:30.823Z,8.63
2022-09-29T08:13:58.046Z,8.32
2022-09-29T08:16:25.478Z,9.02
2022-09-29T08:18:52.279Z,8.15
2022-09-29T08:21:19.119Z,10.27
2022-09-29T08:23:46.382Z,8.77
2022-09-29T08:26:15.978Z,8.02
2022-09-29T08:28:44.158Z,7.65
2022-09-29T08:31:14.222Z,7.32
2022-09-29T08:33:41.342Z,7.85
2022-09-29T08:36:17.243Z,8.82
2022-09-29T08:38:46.029Z,8.98
2022-09-29T08:41:41.991Z,9.10
2022-09-29T08:44:37.183Z,10.38
2022-09-29T08:47:45.621Z,11.35
2022-09-29T08:50:33.464Z,9.95
2022-09-29T08:53:07.904Z,7.62
2022-09-29T08:55:37.844Z,11.30
2022-09-29T08:58:10.809Z,7.68
2022-09-29T09:01:03.873Z,8.13
2022-09-29T09:04:01.133Z,5.47
2022-09-29T09:07:03.612Z,5.45
2022-09-29T09:09:50.671Z,5.95
2022-09-29T09:12:48.775Z,6.93
2022-09-29T09:15:23.712Z,7.10
2022-09-29T09:18:10.133Z,5.70
2022-09-29T09:21:17.057Z,5.40
2022-09-29T09:24:00.584Z,5.43
2022-09-29T09:26:41.614Z,4.93
2022-09-29T09:29:14.807Z,7.10
2022-09-29T09:31:53.404Z,5.85
2022-09-29T09:34:41.644Z,5.70
2022-09-29T09:37:20.403Z,4.37
2022-09-29T09:39:58.613Z,6.68
2022-09-29T09:42:30.477Z,4.05
2022-09-29T09:45:10.459Z,3.78
2022-09-29T09:47:46.000Z,4.78
2022-09-29T09:50:16.141Z,3.65
2022-09-29T09:53:05.054Z,3.40
2022-09-29T09:55:36.859Z,3.50
2022-09-29T09:58:55.124Z,3.03
2022-09-29T10:01:22.416Z,3.50
2022-09-29T10:03:49.454Z,3.75
2022-09-29T10:06:16.292Z,3.87
2022-09-29T10:08:43.277Z,3.20
2022-09-29T10:11:24.188Z,4.28
2022-09-29T10:13:59.187Z,3.42
2022-09-29T10:16:33.488Z,3.50
2022-09-29T10:19:00.504Z,3.10
2022-09-29T10:21:39.739Z,3.60
2022-09-29T10:24:22.004Z,3.37
2022-09-29T10:26:51.550Z,2.80
2022-09-29T10:29:22.599Z,2.72
2022-09-29T10:32:06.649Z,3.08
2022-09-29T10:34:37.760Z,3.12
2022-09-29T10:37:17.682Z,3.15
2022-09-29T10:39:48.196Z,3.92
2022-09-29T10:42:25.818Z,4.30
2022-09-29T10:45:14.376Z,3.40
2022-09-29T10:47:44.948Z,3.33
2022-09-29T10:50:21.448Z,2.60
2022-09-29T10:52:55.794Z,3.08
2022-09-29T10:55:34.497Z,3.42
2022-09-29T10:58:37.505Z,3.80
2022-09-29T11:01:13.376Z,3.47
2022-09-29T11:03:54.416Z,3.28
2022-09-29T11:06:31.002Z,3.17
2022-09-29T11:09:00.824Z,4.75
2022-09-29T11:11:57.893Z,3.67
2022-09-29T11:14:32.139Z,3.30
2022-09-29T11:17:01.347Z,3.80
2022-09-29T11:19:31.985Z,3.62
2022-09-29T11:22:01.300Z,2.80
2022-09-29T11:24:40.642Z,4.00
2022-09-29T11:27:37.984Z,3.50
2022-09-29T11:30:19.949Z,2.70
2022-09-29T11:33:17.048Z,2.87
2022-09-29T11:36:01.218Z,2.28
2022-09-29T11:38:52.699Z,2.78
2022-09-29T11:41:26.196Z,2.55
2022-09-29T11:44:05.838Z,5.53
2022-09-29T11:47:02.155Z,3.42
2022-09-29T11:50:02.619Z,3.40
2022-09-29T11:53:04.997Z,3.17
2022-09-29T11:58:06.882Z,4.00
2022-09-29T12:00:52.445Z,3.40
2022-09-29T12:03:28.340Z,3.53
2022-09-29T12:06:15.796Z,3.28
2022-09-29T12:09:20.015Z,5.12
2022-09-29T12:12:23.013Z,6.30
2022-09-29T12:15:00.343Z,4.20
2022-09-29T12:17:31.277Z,8.85
2022-09-29T12:20:06.079Z,6.82
2022-09-29T12:22:36.885Z,6.53
2022-09-29T12:25:06.537Z,4.57
2022-09-29T12:27:40.027Z,9.45
2022-09-29T12:30:20.504Z,6.37
2022-09-29T12:33:11.366Z,5.00
2022-09-29T12:35:47.479Z,6.18
2022-09-29T12:38:25.643Z,6.12
2022-09-29T12:41:17.275Z,4.62
2022-09-29T12:44:02.638Z,6.18
2022-09-29T12:46:43.650Z,4.72
2022-09-29T12:49:29.527Z,6.25
2022-09-29T12:51:57.534Z,4.70
2022-09-29T12:54:46.010Z,4.12
2022-09-29T12:57:15.142Z,6.43
2022-09-29T13:00:03.035Z,7.03
2022-09-29T13:02:56.080Z,5.18
2022-09-29T13:05:47.496Z,4.47
2022-09-29T13:08:47.236Z,4.65
2022-09-29T13:11:25.684Z,3.25
2022-09-29T13:14:29.147Z,5.32
2022-09-29T13:17:21.601Z,4.47
2022-09-29T13:19:58.974Z,4.03
2022-09-29T13:22:47.227Z,3.15
2022-09-29T13:25:36.276Z,4.07
2022-09-29T13:28:12.304Z,3.78
2022-09-29T13:30:40.176Z,3.83
2022-09-29T13:33:26.745Z,4.18
2022-09-29T13:35:54.475Z,3.47
2022-09-29T13:38:25.582Z,3.37
2022-09-29T13:41:14.502Z,3.35
2022-09-29T13:43:50.960Z,3.37
2022-09-29T13:46:40.707Z,4.37
2022-09-29T13:49:14.206Z,3.55
2022-09-29T13:52:12.291Z,3.58
2022-09-29T13:54:43.587Z,3.28
2022-09-29T13:57:16.245Z,3.60
2022-09-29T13:59:45.635Z,6.68
2022-09-29T14:02:34.213Z,4.22
2022-09-29T14:05:03.228Z,4.20
2022-09-29T14:07:52.282Z,3.97
2022-09-29T14:10:19.412Z,5.32
2022-09-29T14:12:53.843Z,4.53
2022-09-29T14:15:21.847Z,4.40
2022-09-29T14:17:56.372Z,3.50
2022-09-29T14:20:32.048Z,4.05
2022-09-29T14:23:04.204Z,3.80
2022-09-29T14:25:50.665Z,4.37
2022-09-29T14:28:31.585Z,4.20
2022-09-29T14:31:02.905Z,4.07
2022-09-29T14:33:37.873Z,4.13
2022-09-29T14:36:11.745Z,3.67
2022-09-29T14:38:43.233Z,4.37
2022-09-29T14:41:11.600Z,4.03
2022-09-29T14:43:40.714Z,5.10
2022-09-29T14:46:44.372Z,5.25
2022-09-29T14:50:00.825Z,4.10
2022-09-29T14:52:52.906Z,4.37
2022-09-29T14:55:47.902Z,5.47
2022-09-29T14:58:35.519Z,6.68
2022-09-29T15:01:22.911Z,5.10
2022-09-29T15:03:51.726Z,5.87
2022-09-29T15:06:28.996Z,4.37
2022-09-29T15:09:00.484Z,5.62
2022-09-29T15:11:38.129Z,4.40
2022-09-29T15:14:28.533Z,4.50
2022-09-29T15:17:14.749Z,5.45
2022-09-29T15:19:55.463Z,5.12
2022-09-29T15:22:36.657Z,4.78
2022-09-29T15:25:12.404Z,5.00
2022-09-29T15:27:40.482Z,4.15
2022-09-29T15:30:16.268Z,5.35
2022-09-29T15:32:46.138Z,4.50
2022-09-29T15:35:16.172Z,5.50
2022-09-29T15:37:55.392Z,5.28
2022-09-29T15:40:24.947Z,5.22
2022-09-29T15:42:53.899Z,6.15
2022-09-29T15:45:25.868Z,4.93
2022-09-29T15:48:19.431Z,6.12
2022-09-29T15:50:46.097Z,5.25
2022-09-29T15:53:13.330Z,7.22
2022-09-29T15:55:40.177Z,5.85
2022-09-29T15:58:26.704Z,9.10
2022-09-29T16:01:02.958Z,9.80
2022-09-29T16:03:40.840Z,7.62
2022-09-29T16:06:17.466Z,7.50
2022-09-29T16:08:49.352Z,7.65
2022-09-29T16:11:23.696Z,6.75
2022-09-29T16:13:56.142Z,6.18
2022-09-29T16:16:34.218Z,5.85
2022-09-29T16:19:07.417Z,7.30
2022-09-29T16:21:36.952Z,5.87
2022-09-29T16:24:19.486Z,6.15
2022-09-29T16:26:54.841Z,5.32
2022-09-29T16:29:25.069Z,5.53
2022-09-29T16:31:53.283Z,4.80
2022-09-29T16:34:22.954Z,6.37
2022-09-29T16:36:55.849Z,7.47
2022-09-29T16:39:28.996Z,7.60
2022-09-29T16:41:58.880Z,10.00
2022-09-29T16:44:27.199Z,5.97
2022-09-29T16:47:02.564Z,9.82
2022-09-29T16:49:36.356Z,7.28
2022-09-29T16:52:17.223Z,7.68
2022-09-29T16:54:46.407Z,10.32
2022-09-29T16:57:25.369Z,9.70
2022-09-29T16:59:55.712Z,6.62
2022-09-29T17:02:23.876Z,8.23
2022-09-29T17:04:51.682Z,8.50
2022-09-29T17:07:21.654Z,7.50
2022-09-29T17:09:51.499Z,8.02
2022-09-29T17:12:19.020Z,7.40
2022-09-29T17:14:46.791Z,8.20
2022-09-29T17:17:27.445Z,7.53
2022-09-29T17:19:56.554Z,8.30
2022-09-29T17:22:30.754Z,7.65
2022-09-29T17:24:58.587Z,9.23
2022-09-29T17:27:45.690Z,7.32
2022-09-29T17:30:17.864Z,8.40
2022-09-29T17:35:14.748Z,7.55
2022-09-29T17:37:44.065Z,6.95
2022-09-29T17:40:20.497Z,8.02
2022-09-29T17:42:48.404Z,7.87
2022-09-29T17:45:16.467Z,8.95
2022-09-29T17:47:48.820Z,8.32
2022-09-29T17:50:22.422Z,6.87
2022-09-29T17:52:49.207Z,7.70
2022-09-29T17:55:16.349Z,8.13
2022-09-29T17:57:43.551Z,7.65
2022-09-29T18:00:16.918Z,7.95
2022-09-29T18:02:44.777Z,9.57
2022-09-29T18:05:11.456Z,11.60
2022-09-29T18:07:38.093Z,8.68
2022-09-29T18:10:19.682Z,10.10
2022-09-29T18:12:46.326Z,8.55
2022-09-29T18:15:13.281Z,9.05
2022-09-29T18:17:40.025Z,9.25
2022-09-29T18:20:14.529Z,9.23
2022-09-29T18:22:43.955Z,9.43
2022-09-29T18:25:11.018Z,12.45
2022-09-29T18:27:37.938Z,8.95
2022-09-29T18:30:21.140Z,11.27
2022-09-29T18:32:53.299Z,8.85
2022-09-29T18:35:25.946Z,9.63
2022-09-29T18:37:52.602Z,12.57
2022-09-29T18:40:21.962Z,9.50
2022-09-29T18:42:55.941Z,9.40
2022-09-29T18:45:24.327Z,10.95
2022-09-29T18:47:54.707Z,11.73
2022-09-29T18:50:22.840Z,8.80
2022-09-29T18:52:51.289Z,9.55
2022-09-29T18:55:20.896Z,10.05
2022-09-29T18:57:48.712Z,8.73
2022-09-29T19:00:18.305Z,9.85
2022-09-29T19:02:47.501Z,9.13
2022-09-29T19:05:19.125Z,9.88
2022-09-29T19:07:47.872Z,11.30
2022-09-29T19:10:16.303Z,9.75
2022-09-29T19:12:48.472Z,11.30
2022-09-29T19:15:17.368Z,10.73
2022-09-29T19:17:45.305Z,13.93
2022-09-29T19:20:15.300Z,11.35
2022-09-29T19:22:43.352Z,11.05
2022-09-29T19:25:16.994Z,10.10
2022-09-29T19:27:45.595Z,11.55
2022-09-29T19:30:15.086Z,12.45
2022-09-29T19:32:43.225Z,11.35
2022-09-29T19:35:13.828Z,12.75
2022-09-29T19:37:41.022Z,12.40
2022-09-29T19:40:11.412Z,12.02
2022-09-29T19:42:38.851Z,11.70
2022-09-29T19:45:07.914Z,12.68
2022-09-29T19:47:36.128Z,12.57
2022-09-29T19:50:26.380Z,15.45
2022-09-29T19:52:54.577Z,13.93
2022-09-29T19:55:23.573Z,14.27
2022-09-29T19:57:50.786Z,14.77
2022-09-29T20:00:20.528Z,13.65
2022-09-29T20:02:47.946Z,13.35
2022-09-29T20:05:15.581Z,17.10
2022-09-29T20:07:44.159Z,15.75
2022-09-29T20:10:14.623Z,14.75
2022-09-29T20:12:42.605Z,15.30
2022-09-29T20:15:11.921Z,15.85
2022-09-29T20:17:41.004Z,15.00
2022-09-29T20:20:09.347Z,15.32
2022-09-29T20:22:36.553Z,17.65
2022-09-29T20:25:05.469Z,14.68
2022-09-29T20:27:32.418Z,15.75
2022-09-29T20:29:59.623Z,14.68
2022-09-29T20:32:29.275Z,14.57
2022-09-29T20:34:55.910Z,15.63
2022-09-29T20:37:23.161Z,14.52
2022-09-29T20:39:50.562Z,16.75
2022-09-29T20:42:18.055Z,16.80
2022-09-29T20:44:44.869Z,15.43
2022-09-29T20:47:12.231Z,15.90
2022-09-29T20:49:39.255Z,16.65
2022-09-29T20:52:06.193Z,16.02
2022-09-29T20:54:33.114Z,15.32
2022-09-29T20:57:00.489Z,15.35
2022-09-29T20:59:27.149Z,19.75
2022-09-29T21:01:55.051Z,16.87
2022-09-29T21:04:22.067Z,15.65
2022-09-29T21:06:51.000Z,21.02
2022-09-29T21:09:22.022Z,20.73
2022-09-29T21:11:50.599Z,15.55
2022-09-29T21:14:19.723Z,16.70
2022-09-29T21:16:51.271Z,17.27
2022-09-29T21:19:19.788Z,17.62
2022-09-29T21:21:46.680Z,17.87
2022-09-29T21:24:14.579Z,14.35
2022-09-29T21:26:41.894Z,14.98
2022-09-29T21:29:15.431Z,18.40
2022-09-29T21:31:42.208Z,19.05
2022-09-29T21:34:10.470Z,17.45
2022-09-29T21:36:38.052Z,17.20
2022-09-29T21:39:08.697Z,18.35
2022-09-29T21:41:41.155Z,16.25
2022-09-29T21:44:13.155Z,18.77
2022-09-29T21:46:40.570Z,20.75
2022-09-29T21:49:08.707Z,18.02
2022-09-29T21:51:39.360Z,15.68
2022-09-29T21:54:10.321Z,18.90
2022-09-29T21:56:40.396Z,18.05
2022-09-29T21:59:08.973Z,19.50
2022-09-29T22:01:38.201Z,18.02
2022-09-29T22:04:05.867Z,17.92
2022-09-29T22:06:34.286Z,16.50
2022-09-29T22:09:02.174Z,20.50
2022-09-29T22:11:32.128Z,20.98
2022-09-29T22:14:01.143Z,23.33
2022-09-29T22:16:31.500Z,18.73
2022-09-29T22:19:25.201Z,18.48
2022-09-29T22:21:47.199Z,18.60
2022-09-29T22:24:14.635Z,20.65
2022-09-29T22:26:41.473Z,19.12
2022-09-29T22:29:08.225Z,23.27
2022-09-29T22:31:35.468Z,21.05
2022-09-29T22:34:05.122Z,21.77
2022-09-29T22:36:34.068Z,18.37
2022-09-29T22:39:02.123Z,19.50
2022-09-29T22:41:29.377Z,17.90
2022-09-29T22:43:59.221Z,18.60
2022-09-29T22:46:28.544Z,21.85
2022-09-29T22:48:55.865Z,19.15
2022-09-29T22:51:22.759Z,17.42
2022-09-29T22:53:50.635Z,21.48
2022-09-29T22:56:28.096Z,21.10
2022-09-29T22:58:59.298Z,21.12
2022-09-29T23:01:27.041Z,20.37
2022-09-29T23:03:54.020Z,23.70
2022-09-29T23:06:21.237Z,19.45
2022-09-29T23:08:47.829Z,20.92
2022-09-29T23:11:17.638Z,21.65
2022-09-29T23:13:45.137Z,21.80
2022-09-29T23:16:13.895Z,23.67
2022-09-29T23:18:44.819Z,22.83
2022-09-29T23:21:14.693Z,20.80
2022-09-29T23:23:41.734Z,22.87
2022-09-29T23:26:08.614Z,22.73
2022-09-29T23:28:35.777Z,21.35
2022-09-29T23:31:07.074Z,22.20
2022-09-29T23:33:34.217Z,21.45
2022-09-29T23:36:13.349Z,20.00
2022-09-29T23:39:01.033Z,17.75
2022-09-29T23:41:30.224Z,21.75
2022-09-29T23:43:59.328Z,22.20
2022-09-29T23:46:31.576Z,18.15
2022-09-29T23:49:04.466Z,19.58
2022-09-29T23:51:34.529Z,21.83
2022-09-29T23:54:01.487Z,20.80
2022-09-29T23:56:28.963Z,19.50
2022-09-29T23:58:55.787Z,23.10
